sensor_id;sensor_type;location;lat;lon;timestamp;P1;durP1;ratioP1;P2;durP2;ratioP2
50012;SDS011;35901;48.694;9.476;2022-11-14T00:02:29;50.27;;;29.07;;
50012;SDS011;35901;48.694;9.476;2022-11-14T00:05:13;53.60;;;30.77;;
50012;SDS011;35901;48.694;9.476;2022-11-14T00:07:57;53.13;;;30.10;;
50012;SDS011;35901;48.694;9.476;2022-11-14T00:10:43;47.33;;;28.00;;
50012;SDS011;35901;48.694;9.476;2022-11-14T00:13:31;45.63;;;27.00;;
50012;SDS011;35901;48.694;9.476;2022-11-14T00:16:15;51.73;;;31.17;;
50012;SDS011;35901;48.694;9.476;2022-11-14T00:18:59;53.87;;;31.57;;
50012;SDS011;35901;48.694;9.476;2022-11-14T00:21:43;71.30;;;38.60;;
50012;SDS011;35901;48.694;9.476;2022-11-14T00:24:27;78.70;;;37.93;;
50012;SDS011;35901;48.694;9.476;2022-11-14T00:27:11;62.70;;;34.63;;
50012;SDS011;35901;48.694;9.476;2022-11-14T00:29:55;77.37;;;38.87;;
50012;SDS011;35901;48.694;9.476;2022-11-14T00:32:39;60.33;;;33.30;;
50012;SDS011;35901;48.694;9.476;2022-11-14T00:35:23;57.23;;;32.13;;
50012;SDS011;35901;48.694;9.476;2022-11-14T00:38:07;58.30;;;31.53;;
50012;SDS011;35901;48.694;9.476;2022-11-14T00:40:55;47.63;;;28.97;;
50012;SDS011;35901;48.694;9.476;2022-11-14T00:43:39;45.50;;;29.30;;
50012;SDS011;35901;48.694;9.476;2022-11-14T00:46:23;52.73;;;30.20;;
50012;SDS011;35901;48.694;9.476;2022-11-14T00:49:07;50.33;;;28.87;;
50012;SDS011;35901;48.694;9.476;2022-11-14T00:51:51;131.43;;;36.93;;
50012;SDS011;35901;48.694;9.476;2022-11-14T00:54:35;61.07;;;30.53;;
50012;SDS011;35901;48.694;9.476;2022-11-14T00:57:19;54.33;;;30.60;;
50012;SDS011;35901;48.694;9.476;2022-11-14T01:00:04;72.07;;;31.33;;
50012;SDS011;35901;48.694;9.476;2022-11-14T01:02:49;58.73;;;29.53;;
50012;SDS011;35901;48.694;9.476;2022-11-14T01:05:33;65.43;;;26.37;;
50012;SDS011;35901;48.694;9.476;2022-11-14T01:08:22;47.27;;;24.53;;
50012;SDS011;35901;48.694;9.476;2022-11-14T01:11:10;62.87;;;29.27;;
50012;SDS011;35901;48.694;9.476;2022-11-14T01:14:04;51.73;;;29.27;;
50012;SDS011;35901;48.694;9.476;2022-11-14T01:16:49;75.77;;;31.90;;
50012;SDS011;35901;48.694;9.476;2022-11-14T01:19:33;54.87;;;29.57;;
50012;SDS011;35901;48.694;9.476;2022-11-14T01:22:18;61.00;;;30.43;;
50012;SDS011;35901;48.694;9.476;2022-11-14T01:25:02;73.70;;;27.60;;
50012;SDS011;35901;48.694;9.476;2022-11-14T01:27:47;105.87;;;30.60;;
50012;SDS011;35901;48.694;9.476;2022-11-14T01:30:31;76.90;;;28.83;;
50012;SDS011;35901;48.694;9.476;2022-11-14T01:33:15;70.77;;;28.03;;
50012;SDS011;35901;48.694;9.476;2022-11-14T01:35:59;115.20;;;31.63;;
50012;SDS011;35901;48.694;9.476;2022-11-14T01:38:43;82.97;;;28.53;;
50012;SDS011;35901;48.694;9.476;2022-11-14T01:41:28;83.57;;;27.37;;
50012;SDS011;35901;48.694;9.476;2022-11-14T01:44:36;81.87;;;28.60;;
50012;SDS011;35901;48.694;9.476;2022-11-14T01:47:29;59.77;;;27.83;;
50012;SDS011;35901;48.694;9.476;2022-11-14T01:50:15;60.37;;;28.17;;
50012;SDS011;35901;48.694;9.476;2022-11-14T01:53:00;47.70;;;27.97;;
50012;SDS011;35901;48.694;9.476;2022-11-14T01:55:45;52.33;;;28.13;;
50012;SDS011;35901;48.694;9.476;2022-11-14T01:58:29;49.23;;;27.40;;
50012;SDS011;35901;48.694;9.476;2022-11-14T02:01:15;116.53;;;32.13;;
50012;SDS011;35901;48.694;9.476;2022-11-14T02:04:00;68.53;;;28.43;;
50012;SDS011;35901;48.694;9.476;2022-11-14T02:06:46;58.47;;;25.87;;
50012;SDS011;35901;48.694;9.476;2022-11-14T02:09:33;55.73;;;28.03;;
50012;SDS011;35901;48.694;9.476;2022-11-14T02:12:20;57.33;;;29.93;;
50012;SDS011;35901;48.694;9.476;2022-11-14T02:15:05;116.07;;;32.87;;
50012;SDS011;35901;48.694;9.476;2022-11-14T02:17:50;61.80;;;29.23;;
50012;SDS011;35901;48.694;9.476;2022-11-14T02:20:37;71.60;;;29.07;;
50012;SDS011;35901;48.694;9.476;2022-11-14T02:23:26;75.23;;;30.00;;
50012;SDS011;35901;48.694;9.476;2022-11-14T02:26:11;67.30;;;29.83;;
50012;SDS011;35901;48.694;9.476;2022-11-14T02:28:55;63.60;;;27.77;;
50012;SDS011;35901;48.694;9.476;2022-11-14T02:31:40;73.20;;;29.10;;
50012;SDS011;35901;48.694;9.476;2022-11-14T02:34:24;115.00;;;31.57;;
50012;SDS011;35901;48.694;9.476;2022-11-14T02:37:08;60.37;;;27.30;;
50012;SDS011;35901;48.694;9.476;2022-11-14T02:39:53;54.57;;;29.60;;
50012;SDS011;35901;48.694;9.476;2022-11-14T02:42:37;76.77;;;28.83;;
50012;SDS011;35901;48.694;9.476;2022-11-14T02:45:21;41.77;;;26.93;;
50012;SDS011;35901;48.694;9.476;2022-11-14T02:48:05;63.80;;;30.40;;
50012;SDS011;35901;48.694;9.476;2022-11-14T02:50:49;99.33;;;32.33;;
50012;SDS011;35901;48.694;9.476;2022-11-14T02:53:33;162.37;;;34.90;;
50012;SDS011;35901;48.694;9.476;2022-11-14T02:56:17;88.90;;;31.03;;
50012;SDS011;35901;48.694;9.476;2022-11-14T02:59:01;86.60;;;31.37;;
50012;SDS011;35901;48.694;9.476;2022-11-14T03:01:45;84.67;;;26.93;;
50012;SDS011;35901;48.694;9.476;2022-11-14T03:04:29;140.10;;;32.30;;
50012;SDS011;35901;48.694;9.476;2022-11-14T03:07:13;68.10;;;25.73;;
50012;SDS011;35901;48.694;9.476;2022-11-14T03:09:58;164.30;;;33.67;;
50012;SDS011;35901;48.694;9.476;2022-11-14T03:12:42;135.47;;;29.37;;
50012;SDS011;35901;48.694;9.476;2022-11-14T03:15:26;259.47;;;36.93;;
50012;SDS011;35901;48.694;9.476;2022-11-14T03:18:10;146.67;;;31.50;;
50012;SDS011;35901;48.694;9.476;2022-11-14T03:20:55;97.60;;;29.00;;
50012;SDS011;35901;48.694;9.476;2022-11-14T03:23:39;241.90;;;36.13;;
50012;SDS011;35901;48.694;9.476;2022-11-14T03:26:23;222.10;;;31.00;;
50012;SDS011;35901;48.694;9.476;2022-11-14T03:29:07;353.67;;;37.00;;
50012;SDS011;35901;48.694;9.476;2022-11-14T03:31:51;42.27;;;25.27;;
50012;SDS011;35901;48.694;9.476;2022-11-14T03:34:35;81.03;;;28.90;;
50012;SDS011;35901;48.694;9.476;2022-11-14T03:37:19;61.53;;;28.57;;
50012;SDS011;35901;48.694;9.476;2022-11-14T03:40:04;50.90;;;27.33;;
50012;SDS011;35901;48.694;9.476;2022-11-14T03:42:48;51.33;;;27.47;;
50012;SDS011;35901;48.694;9.476;2022-11-14T03:45:32;50.90;;;25.67;;
50012;SDS011;35901;48.694;9.476;2022-11-14T03:48:16;58.87;;;26.43;;
50012;SDS011;35901;48.694;9.476;2022-11-14T03:51:01;81.47;;;25.77;;
50012;SDS011;35901;48.694;9.476;2022-11-14T03:53:44;78.70;;;26.20;;
50012;SDS011;35901;48.694;9.476;2022-11-14T03:56:29;76.47;;;25.03;;
50012;SDS011;35901;48.694;9.476;2022-11-14T03:59:12;38.97;;;22.00;;
50012;SDS011;35901;48.694;9.476;2022-11-14T04:01:57;51.03;;;24.13;;
50012;SDS011;35901;48.694;9.476;2022-11-14T04:04:41;68.80;;;25.10;;
50012;SDS011;35901;48.694;9.476;2022-11-14T04:07:25;44.80;;;22.70;;
50012;SDS011;35901;48.694;9.476;2022-11-14T04:10:09;50.80;;;23.17;;
50012;SDS011;35901;48.694;9.476;2022-11-14T04:12:53;42.50;;;22.50;;
50012;SDS011;35901;48.694;9.476;2022-11-14T04:15:38;53.50;;;24.00;;
50012;SDS011;35901;48.694;9.476;2022-11-14T04:18:23;161.17;;;31.90;;
50012;SDS011;35901;48.694;9.476;2022-11-14T04:21:08;51.60;;;22.60;;
50012;SDS011;35901;48.694;9.476;2022-11-14T04:23:52;145.33;;;27.83;;
50012;SDS011;35901;48.694;9.476;2022-11-14T04:26:36;40.53;;;22.70;;
50012;SDS011;35901;48.694;9.476;2022-11-14T04:29:20;50.50;;;24.30;;
50012;SDS011;35901;48.694;9.476;2022-11-14T04:32:04;82.27;;;25.00;;
50012;SDS011;35901;48.694;9.476;2022-11-14T04:34:48;87.43;;;29.87;;
50012;SDS011;35901;48.694;9.476;2022-11-14T04:37:32;80.03;;;25.47;;
50012;SDS011;35901;48.694;9.476;2022-11-14T04:40:17;107.70;;;27.67;;
50012;SDS011;35901;48.694;9.476;2022-11-14T04:43:01;197.07;;;33.70;;
50012;SDS011;35901;48.694;9.476;2022-11-14T04:45:45;92.83;;;28.97;;
50012;SDS011;35901;48.694;9.476;2022-11-14T04:48:29;93.87;;;26.73;;
50012;SDS011;35901;48.694;9.476;2022-11-14T04:51:13;81.60;;;29.67;;
50012;SDS011;35901;48.694;9.476;2022-11-14T04:53:58;59.20;;;24.93;;
50012;SDS011;35901;48.694;9.476;2022-11-14T04:56:42;48.90;;;23.33;;
50012;SDS011;35901;48.694;9.476;2022-11-14T04:59:26;40.73;;;22.30;;
50012;SDS011;35901;48.694;9.476;2022-11-14T05:02:10;55.37;;;22.90;;
50012;SDS011;35901;48.694;9.476;2022-11-14T05:04:54;45.57;;;20.93;;
50012;SDS011;35901;48.694;9.476;2022-11-14T05:07:38;77.37;;;23.30;;
50012;SDS011;35901;48.694;9.476;2022-11-14T05:10:22;47.67;;;24.23;;
50012;SDS011;35901;48.694;9.476;2022-11-14T05:13:06;51.73;;;25.33;;
50012;SDS011;35901;48.694;9.476;2022-11-14T05:15:51;64.10;;;24.03;;
50012;SDS011;35901;48.694;9.476;2022-11-14T05:18:36;58.93;;;22.40;;
50012;SDS011;35901;48.694;9.476;2022-11-14T05:21:20;86.97;;;25.80;;
50012;SDS011;35901;48.694;9.476;2022-11-14T05:24:04;131.20;;;28.63;;
50012;SDS011;35901;48.694;9.476;2022-11-14T05:26:49;92.80;;;26.07;;
50012;SDS011;35901;48.694;9.476;2022-11-14T05:29:33;143.20;;;27.23;;
50012;SDS011;35901;48.694;9.476;2022-11-14T05:32:17;185.83;;;32.37;;
50012;SDS011;35901;48.694;9.476;2022-11-14T05:35:01;166.37;;;27.87;;
50012;SDS011;35901;48.694;9.476;2022-11-14T05:37:45;164.17;;;26.67;;
50012;SDS011;35901;48.694;9.476;2022-11-14T05:40:29;119.60;;;26.93;;
50012;SDS011;35901;48.694;9.476;2022-11-14T05:43:13;81.27;;;23.77;;
50012;SDS011;35901;48.694;9.476;2022-11-14T05:46:04;56.30;;;21.00;;
50012;SDS011;35901;48.694;9.476;2022-11-14T05:48:50;63.70;;;24.67;;
50012;SDS011;35901;48.694;9.476;2022-11-14T05:51:34;115.50;;;28.47;;
50012;SDS011;35901;48.694;9.476;2022-11-14T05:54:18;78.97;;;27.97;;
50012;SDS011;35901;48.694;9.476;2022-11-14T05:57:02;81.97;;;26.80;;
50012;SDS011;35901;48.694;9.476;2022-11-14T05:59:47;131.10;;;28.23;;
50012;SDS011;35901;48.694;9.476;2022-11-14T06:02:31;117.93;;;31.50;;
50012;SDS011;35901;48.694;9.476;2022-11-14T06:05:15;86.27;;;28.30;;
50012;SDS011;35901;48.694;9.476;2022-11-14T06:07:59;137.57;;;30.60;;
50012;SDS011;35901;48.694;9.476;2022-11-14T06:10:44;89.70;;;29.10;;
50012;SDS011;35901;48.694;9.476;2022-11-14T06:13:28;56.13;;;28.37;;
50012;SDS011;35901;48.694;9.476;2022-11-14T06:16:14;234.03;;;38.77;;
50012;SDS011;35901;48.694;9.476;2022-11-14T06:18:59;46.27;;;27.93;;
50012;SDS011;35901;48.694;9.476;2022-11-14T06:21:43;77.77;;;29.93;;
50012;SDS011;35901;48.694;9.476;2022-11-14T06:24:27;65.07;;;27.90;;
50012;SDS011;35901;48.694;9.476;2022-11-14T06:27:11;66.63;;;28.87;;
50012;SDS011;35901;48.694;9.476;2022-11-14T06:29:55;66.60;;;28.13;;
50012;SDS011;35901;48.694;9.476;2022-11-14T06:32:40;80.50;;;28.53;;
50012;SDS011;35901;48.694;9.476;2022-11-14T06:35:24;76.33;;;27.63;;
50012;SDS011;35901;48.694;9.476;2022-11-14T06:38:09;216.07;;;39.30;;
50012;SDS011;35901;48.694;9.476;2022-11-14T06:41:00;39.07;;;23.10;;
50012;SDS011;35901;48.694;9.476;2022-11-14T06:43:54;46.20;;;26.50;;
50012;SDS011;35901;48.694;9.476;2022-11-14T06:46:38;63.50;;;29.10;;
50012;SDS011;35901;48.694;9.476;2022-11-14T06:49:22;44.30;;;25.13;;
50012;SDS011;35901;48.694;9.476;2022-11-14T06:52:07;42.30;;;24.90;;
50012;SDS011;35901;48.694;9.476;2022-11-14T06:54:51;42.90;;;26.20;;
50012;SDS011;35901;48.694;9.476;2022-11-14T06:57:35;66.73;;;29.53;;
50012;SDS011;35901;48.694;9.476;2022-11-14T07:00:20;51.97;;;28.67;;
50012;SDS011;35901;48.694;9.476;2022-11-14T07:03:04;62.57;;;29.50;;
50012;SDS011;35901;48.694;9.476;2022-11-14T07:05:48;54.07;;;27.67;;
50012;SDS011;35901;48.694;9.476;2022-11-14T07:08:33;62.03;;;27.47;;
50012;SDS011;35901;48.694;9.476;2022-11-14T07:11:18;164.60;;;29.97;;
50012;SDS011;35901;48.694;9.476;2022-11-14T07:14:09;55.33;;;25.20;;
50012;SDS011;35901;48.694;9.476;2022-11-14T07:16:53;56.80;;;29.67;;
50012;SDS011;35901;48.694;9.476;2022-11-14T07:19:37;67.40;;;31.00;;
50012;SDS011;35901;48.694;9.476;2022-11-14T07:22:21;131.20;;;33.37;;
50012;SDS011;35901;48.694;9.476;2022-11-14T07:25:05;82.93;;;29.17;;
50012;SDS011;35901;48.694;9.476;2022-11-14T07:27:49;105.83;;;33.80;;
50012;SDS011;35901;48.694;9.476;2022-11-14T07:30:33;80.07;;;33.13;;
50012;SDS011;35901;48.694;9.476;2022-11-14T07:33:17;60.07;;;31.33;;
50012;SDS011;35901;48.694;9.476;2022-11-14T07:36:01;59.13;;;30.27;;
50012;SDS011;35901;48.694;9.476;2022-11-14T07:38:46;63.27;;;28.63;;
50012;SDS011;35901;48.694;9.476;2022-11-14T07:41:30;52.10;;;28.83;;
50012;SDS011;35901;48.694;9.476;2022-11-14T07:44:15;48.43;;;26.83;;
50012;SDS011;35901;48.694;9.476;2022-11-14T07:46:59;40.53;;;25.00;;
50012;SDS011;35901;48.694;9.476;2022-11-14T07:49:43;40.03;;;25.67;;
50012;SDS011;35901;48.694;9.476;2022-11-14T07:52:27;37.17;;;24.97;;
50012;SDS011;35901;48.694;9.476;2022-11-14T07:55:14;38.43;;;25.17;;
50012;SDS011;35901;48.694;9.476;2022-11-14T07:57:58;41.97;;;25.13;;
50012;SDS011;35901;48.694;9.476;2022-11-14T08:00:42;43.13;;;27.57;;
50012;SDS011;35901;48.694;9.476;2022-11-14T08:03:26;44.93;;;26.37;;
50012;SDS011;35901;48.694;9.476;2022-11-14T08:06:11;40.83;;;25.97;;
50012;SDS011;35901;48.694;9.476;2022-11-14T08:08:57;39.60;;;26.10;;
50012;SDS011;35901;48.694;9.476;2022-11-14T08:11:41;30.40;;;23.10;;
50012;SDS011;35901;48.694;9.476;2022-11-14T08:14:32;24.70;;;20.67;;
50012;SDS011;35901;48.694;9.476;2022-11-14T08:17:16;22.87;;;19.27;;
50012;SDS011;35901;48.694;9.476;2022-11-14T08:20:00;23.30;;;19.30;;
50012;SDS011;35901;48.694;9.476;2022-11-14T08:22:45;20.43;;;17.33;;
50012;SDS011;35901;48.694;9.476;2022-11-14T08:25:29;21.67;;;17.80;;
50012;SDS011;35901;48.694;9.476;2022-11-14T08:28:13;20.00;;;15.37;;
50012;SDS011;35901;48.694;9.476;2022-11-14T08:31:01;28.90;;;19.67;;
50012;SDS011;35901;48.694;9.476;2022-11-14T08:33:46;31.37;;;19.03;;
50012;SDS011;35901;48.694;9.476;2022-11-14T08:36:32;33.33;;;21.60;;
50012;SDS011;35901;48.694;9.476;2022-11-14T08:39:17;33.83;;;22.00;;
50012;SDS011;35901;48.694;9.476;2022-11-14T08:42:01;30.67;;;20.50;;
50012;SDS011;35901;48.694;9.476;2022-11-14T08:44:46;35.60;;;19.77;;
50012;SDS011;35901;48.694;9.476;2022-11-14T08:47:30;31.97;;;20.17;;
50012;SDS011;35901;48.694;9.476;2022-11-14T08:50:14;30.20;;;19.87;;
50012;SDS011;35901;48.694;9.476;2022-11-14T08:52:59;30.27;;;18.37;;
50012;SDS011;35901;48.694;9.476;2022-11-14T08:55:43;33.53;;;20.67;;
50012;SDS011;35901;48.694;9.476;2022-11-14T08:58:31;34.73;;;23.33;;
50012;SDS011;35901;48.694;9.476;2022-11-14T09:01:15;44.23;;;27.50;;
50012;SDS011;35901;48.694;9.476;2022-11-14T09:04:00;47.77;;;27.53;;
50012;SDS011;35901;48.694;9.476;2022-11-14T09:06:43;46.57;;;29.13;;
50012;SDS011;35901;48.694;9.476;2022-11-14T09:09:29;47.10;;;28.30;;
50012;SDS011;35901;48.694;9.476;2022-11-14T09:12:14;47.30;;;29.33;;
50012;SDS011;35901;48.694;9.476;2022-11-14T09:14:59;54.73;;;30.37;;
50012;SDS011;35901;48.694;9.476;2022-11-14T09:17:43;54.27;;;30.13;;
50012;SDS011;35901;48.694;9.476;2022-11-14T09:20:28;46.47;;;27.63;;
50012;SDS011;35901;48.694;9.476;2022-11-14T09:23:18;40.73;;;25.63;;
50012;SDS011;35901;48.694;9.476;2022-11-14T09:26:07;46.20;;;28.93;;
50012;SDS011;35901;48.694;9.476;2022-11-14T09:28:52;49.67;;;28.87;;
50012;SDS011;35901;48.694;9.476;2022-11-14T09:31:36;46.03;;;28.10;;
50012;SDS011;35901;48.694;9.476;2022-11-14T09:34:20;45.00;;;27.77;;
50012;SDS011;35901;48.694;9.476;2022-11-14T09:37:04;46.00;;;26.73;;
50012;SDS011;35901;48.694;9.476;2022-11-14T09:39:48;51.33;;;29.27;;
50012;SDS011;35901;48.694;9.476;2022-11-14T09:45:25;63.90;;;36.00;;
50012;SDS011;35901;48.694;9.476;2022-11-14T09:48:11;63.97;;;36.17;;
50012;SDS011;35901;48.694;9.476;2022-11-14T09:56:56;52.03;;;28.90;;
50012;SDS011;35901;48.694;9.476;2022-11-14T09:59:40;54.03;;;31.57;;
50012;SDS011;35901;48.694;9.476;2022-11-14T10:02:33;55.27;;;33.70;;
50012;SDS011;35901;48.694;9.476;2022-11-14T10:05:31;49.87;;;30.60;;
50012;SDS011;35901;48.694;9.476;2022-11-14T10:12:04;42.43;;;25.60;;
50012;SDS011;35901;48.694;9.476;2022-11-14T10:15:21;40.63;;;25.40;;
50012;SDS011;35901;48.694;9.476;2022-11-14T10:18:19;39.40;;;25.07;;
50012;SDS011;35901;48.694;9.476;2022-11-14T10:24:39;26.30;;;17.20;;
50012;SDS011;35901;48.694;9.476;2022-11-14T10:30:59;23.13;;;15.07;;
50012;SDS011;35901;48.694;9.476;2022-11-14T10:34:05;22.57;;;17.17;;
50012;SDS011;35901;48.694;9.476;2022-11-14T10:40:17;10.27;;;7.67;;
50012;SDS011;35901;48.694;9.476;2022-11-14T10:43:12;13.07;;;11.30;;
50012;SDS011;35901;48.694;9.476;2022-11-14T10:46:19;12.40;;;10.93;;
50012;SDS011;35901;48.694;9.476;2022-11-14T10:49:20;7.40;;;6.70;;
50012;SDS011;35901;48.694;9.476;2022-11-14T10:52:09;7.60;;;6.70;;
50012;SDS011;35901;48.694;9.476;2022-11-14T10:54:58;7.57;;;6.10;;
50012;SDS011;35901;48.694;9.476;2022-11-14T10:57:45;4.47;;;4.07;;
50012;SDS011;35901;48.694;9.476;2022-11-14T11:00:30;4.10;;;3.80;;
50012;SDS011;35901;48.694;9.476;2022-11-14T11:03:14;2.80;;;2.33;;
50012;SDS011;35901;48.694;9.476;2022-11-14T11:05:58;1.80;;;1.70;;
50012;SDS011;35901;48.694;9.476;2022-11-14T11:08:43;1.80;;;1.70;;
50012;SDS011;35901;48.694;9.476;2022-11-14T11:11:56;1.60;;;1.50;;
50012;SDS011;35901;48.694;9.476;2022-11-14T11:14:42;3.00;;;2.70;;
50012;SDS011;35901;48.694;9.476;2022-11-14T11:17:27;1.73;;;1.63;;
50012;SDS011;35901;48.694;9.476;2022-11-14T11:20:23;1.90;;;1.80;;
50012;SDS011;35901;48.694;9.476;2022-11-14T11:25:59;1.83;;;1.40;;
50012;SDS011;35901;48.694;9.476;2022-11-14T11:29:01;2.70;;;1.30;;
50012;SDS011;35901;48.694;9.476;2022-11-14T11:31:57;1.60;;;1.47;;
50012;SDS011;35901;48.694;9.476;2022-11-14T11:34:42;1.40;;;1.30;;
50012;SDS011;35901;48.694;9.476;2022-11-14T11:37:29;1.33;;;1.27;;
50012;SDS011;35901;48.694;9.476;2022-11-14T11:40:21;1.37;;;1.37;;
50012;SDS011;35901;48.694;9.476;2022-11-14T11:46:14;1.20;;;1.20;;
50012;SDS011;35901;48.694;9.476;2022-11-14T11:49:12;1.40;;;1.30;;
50012;SDS011;35901;48.694;9.476;2022-11-14T11:55:13;1.20;;;1.17;;
50012;SDS011;35901;48.694;9.476;2022-11-14T11:58:19;1.33;;;1.23;;
50012;SDS011;35901;48.694;9.476;2022-11-14T12:01:11;1.50;;;1.40;;
50012;SDS011;35901;48.694;9.476;2022-11-14T12:03:56;1.40;;;1.30;;
50012;SDS011;35901;48.694;9.476;2022-11-14T12:06:44;1.50;;;1.40;;
50012;SDS011;35901;48.694;9.476;2022-11-14T12:09:37;1.50;;;1.40;;
50012;SDS011;35901;48.694;9.476;2022-11-14T12:12:33;2.07;;;1.47;;
50012;SDS011;35901;48.694;9.476;2022-11-14T12:22:10;1.40;;;1.30;;
50012;SDS011;35901;48.694;9.476;2022-11-14T12:25:17;2.30;;;1.50;;
50012;SDS011;35901;48.694;9.476;2022-11-14T12:31:24;1.30;;;1.20;;
50012;SDS011;35901;48.694;9.476;2022-11-14T12:34:13;1.40;;;1.30;;
50012;SDS011;35901;48.694;9.476;2022-11-14T12:37:33;1.47;;;1.33;;
50012;SDS011;35901;48.694;9.476;2022-11-14T12:40:20;1.63;;;1.53;;
50012;SDS011;35901;48.694;9.476;2022-11-14T12:46:11;1.50;;;1.40;;
50012;SDS011;35901;48.694;9.476;2022-11-14T12:48:56;1.43;;;1.33;;
50012;SDS011;35901;48.694;9.476;2022-11-14T12:51:50;1.37;;;1.20;;
50012;SDS011;35901;48.694;9.476;2022-11-14T12:54:44;1.97;;;1.30;;
50012;SDS011;35901;48.694;9.476;2022-11-14T12:57:39;2.50;;;1.33;;
50012;SDS011;35901;48.694;9.476;2022-11-14T13:00:31;1.37;;;1.10;;
50012;SDS011;35901;48.694;9.476;2022-11-14T13:03:37;1.50;;;1.40;;
50012;SDS011;35901;48.694;9.476;2022-11-14T13:12:42;1.13;;;1.13;;
50012;SDS011;35901;48.694;9.476;2022-11-14T13:16:20;1.47;;;1.30;;
50012;SDS011;35901;48.694;9.476;2022-11-14T13:19:27;1.50;;;1.40;;
50012;SDS011;35901;48.694;9.476;2022-11-14T13:25:24;1.43;;;1.33;;
50012;SDS011;35901;48.694;9.476;2022-11-14T13:40:39;1.50;;;1.40;;
50012;SDS011;35901;48.694;9.476;2022-11-14T13:46:42;3.47;;;1.50;;
50012;SDS011;35901;48.694;9.476;2022-11-14T13:52:44;2.20;;;1.53;;
50012;SDS011;35901;48.694;9.476;2022-11-14T14:01:41;1.97;;;1.63;;
50012;SDS011;35901;48.694;9.476;2022-11-14T14:11:26;2.00;;;1.70;;
50012;SDS011;35901;48.694;9.476;2022-11-14T14:17:38;2.00;;;1.80;;
50012;SDS011;35901;48.694;9.476;2022-11-14T14:23:57;1.60;;;1.50;;
50012;SDS011;35901;48.694;9.476;2022-11-14T14:30:07;1.70;;;1.60;;
50012;SDS011;35901;48.694;9.476;2022-11-14T14:35:51;1.73;;;1.60;;
50012;SDS011;35901;48.694;9.476;2022-11-14T14:38:36;1.67;;;1.57;;
50012;SDS011;35901;48.694;9.476;2022-11-14T14:41:30;2.53;;;1.90;;
50012;SDS011;35901;48.694;9.476;2022-11-14T14:47:26;1.70;;;1.60;;
50012;SDS011;35901;48.694;9.476;2022-11-14T14:50:20;2.60;;;1.77;;
50012;SDS011;35901;48.694;9.476;2022-11-14T14:53:04;1.73;;;1.63;;
50012;SDS011;35901;48.694;9.476;2022-11-14T14:55:53;2.00;;;1.90;;
50012;SDS011;35901;48.694;9.476;2022-11-14T14:58:40;1.60;;;1.50;;
50012;SDS011;35901;48.694;9.476;2022-11-14T15:01:30;1.97;;;1.87;;
50012;SDS011;35901;48.694;9.476;2022-11-14T15:04:17;2.90;;;1.73;;
50012;SDS011;35901;48.694;9.476;2022-11-14T15:07:03;2.23;;;1.93;;
50012;SDS011;35901;48.694;9.476;2022-11-14T15:09:55;2.00;;;1.80;;
50012;SDS011;35901;48.694;9.476;2022-11-14T15:12:44;1.53;;;1.43;;
50012;SDS011;35901;48.694;9.476;2022-11-14T15:15:28;2.10;;;1.90;;
50012;SDS011;35901;48.694;9.476;2022-11-14T15:18:21;1.57;;;1.50;;
50012;SDS011;35901;48.694;9.476;2022-11-14T15:21:15;2.17;;;1.67;;
50012;SDS011;35901;48.694;9.476;2022-11-14T15:24:18;4.27;;;1.80;;
50012;SDS011;35901;48.694;9.476;2022-11-14T15:27:10;1.90;;;1.80;;
50012;SDS011;35901;48.694;9.476;2022-11-14T15:29:56;1.63;;;1.53;;
50012;SDS011;35901;48.694;9.476;2022-11-14T15:32:52;1.60;;;1.50;;
50012;SDS011;35901;48.694;9.476;2022-11-14T15:35:38;2.23;;;1.93;;
50012;SDS011;35901;48.694;9.476;2022-11-14T15:38:23;2.00;;;1.80;;
50012;SDS011;35901;48.694;9.476;2022-11-14T15:41:08;1.97;;;1.77;;
50012;SDS011;35901;48.694;9.476;2022-11-14T15:44:27;2.10;;;1.90;;
50012;SDS011;35901;48.694;9.476;2022-11-14T15:47:21;1.87;;;1.77;;
50012;SDS011;35901;48.694;9.476;2022-11-14T15:53:01;2.23;;;1.77;;
50012;SDS011;35901;48.694;9.476;2022-11-14T15:55:47;2.23;;;2.03;;
50012;SDS011;35901;48.694;9.476;2022-11-14T15:58:32;1.77;;;1.67;;
50012;SDS011;35901;48.694;9.476;2022-11-14T16:01:18;1.87;;;1.77;;
50012;SDS011;35901;48.694;9.476;2022-11-14T16:04:13;2.13;;;1.93;;
50012;SDS011;35901;48.694;9.476;2022-11-14T16:06:59;2.20;;;2.00;;
50012;SDS011;35901;48.694;9.476;2022-11-14T16:09:43;3.17;;;2.20;;
50012;SDS011;35901;48.694;9.476;2022-11-14T16:12:28;3.73;;;2.00;;
50012;SDS011;35901;48.694;9.476;2022-11-14T16:15:12;2.40;;;1.80;;
50012;SDS011;35901;48.694;9.476;2022-11-14T16:17:58;2.47;;;2.00;;
50012;SDS011;35901;48.694;9.476;2022-11-14T16:20:42;1.90;;;1.80;;
50012;SDS011;35901;48.694;9.476;2022-11-14T16:23:26;2.03;;;1.83;;
50012;SDS011;35901;48.694;9.476;2022-11-14T16:26:10;2.20;;;2.00;;
50012;SDS011;35901;48.694;9.476;2022-11-14T16:28:54;2.20;;;2.00;;
50012;SDS011;35901;48.694;9.476;2022-11-14T16:31:39;2.30;;;2.00;;
50012;SDS011;35901;48.694;9.476;2022-11-14T16:34:24;4.00;;;2.20;;
50012;SDS011;35901;48.694;9.476;2022-11-14T16:37:12;2.43;;;1.97;;
50012;SDS011;35901;48.694;9.476;2022-11-14T16:39:57;2.13;;;1.93;;
50012;SDS011;35901;48.694;9.476;2022-11-14T16:42:41;2.37;;;2.17;;
50012;SDS011;35901;48.694;9.476;2022-11-14T16:45:25;2.60;;;2.40;;
50012;SDS011;35901;48.694;9.476;2022-11-14T16:48:11;3.50;;;2.33;;
50012;SDS011;35901;48.694;9.476;2022-11-14T16:50:58;3.73;;;2.20;;
50012;SDS011;35901;48.694;9.476;2022-11-14T16:53:43;3.07;;;2.67;;
50012;SDS011;35901;48.694;9.476;2022-11-14T16:56:27;3.10;;;2.80;;
50012;SDS011;35901;48.694;9.476;2022-11-14T16:59:13;2.77;;;2.30;;
50012;SDS011;35901;48.694;9.476;2022-11-14T17:01:57;5.13;;;2.83;;
50012;SDS011;35901;48.694;9.476;2022-11-14T17:04:41;4.70;;;2.60;;
50012;SDS011;35901;48.694;9.476;2022-11-14T17:07:26;2.80;;;2.60;;
50012;SDS011;35901;48.694;9.476;2022-11-14T17:10:15;2.87;;;2.67;;
50012;SDS011;35901;48.694;9.476;2022-11-14T17:13:00;2.60;;;2.40;;
50012;SDS011;35901;48.694;9.476;2022-11-14T17:15:44;2.63;;;2.30;;
50012;SDS011;35901;48.694;9.476;2022-11-14T17:18:28;2.60;;;2.30;;
50012;SDS011;35901;48.694;9.476;2022-11-14T17:21:12;2.77;;;2.53;;
50012;SDS011;35901;48.694;9.476;2022-11-14T17:23:58;3.10;;;2.80;;
50012;SDS011;35901;48.694;9.476;2022-11-14T17:26:44;4.17;;;3.10;;
50012;SDS011;35901;48.694;9.476;2022-11-14T17:29:27;5.03;;;3.77;;
50012;SDS011;35901;48.694;9.476;2022-11-14T17:32:11;3.87;;;3.30;;
50012;SDS011;35901;48.694;9.476;2022-11-14T17:34:55;3.53;;;3.23;;
50012;SDS011;35901;48.694;9.476;2022-11-14T17:37:40;3.17;;;2.70;;
50012;SDS011;35901;48.694;9.476;2022-11-14T17:40:25;3.03;;;2.80;;
50012;SDS011;35901;48.694;9.476;2022-11-14T17:43:09;3.60;;;2.60;;
50012;SDS011;35901;48.694;9.476;2022-11-14T17:45:54;2.93;;;2.73;;
50012;SDS011;35901;48.694;9.476;2022-11-14T17:48:39;2.70;;;2.50;;
50012;SDS011;35901;48.694;9.476;2022-11-14T17:51:23;3.00;;;2.40;;
50012;SDS011;35901;48.694;9.476;2022-11-14T17:54:11;5.40;;;2.87;;
50012;SDS011;35901;48.694;9.476;2022-11-14T17:56:55;4.10;;;2.90;;
50012;SDS011;35901;48.694;9.476;2022-11-14T17:59:40;3.37;;;2.70;;
50012;SDS011;35901;48.694;9.476;2022-11-14T18:02:24;3.40;;;2.50;;
50012;SDS011;35901;48.694;9.476;2022-11-14T18:05:08;2.67;;;2.40;;
50012;SDS011;35901;48.694;9.476;2022-11-14T18:07:52;3.33;;;2.93;;
50012;SDS011;35901;48.694;9.476;2022-11-14T18:10:36;2.63;;;2.40;;
50012;SDS011;35901;48.694;9.476;2022-11-14T18:13:20;2.77;;;2.57;;